createdAt,value
2023-04-11T00:00:41.529Z,6.43
2023-04-11T00:06:05.036Z,6.20
2023-04-11T00:11:27.655Z,6.37
2023-04-11T00:16:53.877Z,6.27
2023-04-11T00:22:18.012Z,6.47
2023-04-11T00:27:40.484Z,6.30
2023-04-11T00:33:04.017Z,6.70
2023-04-11T00:38:27.160Z,6.70
2023-04-11T00:43:49.873Z,5.67
2023-04-11T00:49:12.334Z,6.80
2023-04-11T00:54:35.011Z,6.83
2023-04-11T00:59:58.802Z,6.33
2023-04-11T01:05:21.950Z,6.43
2023-04-11T01:10:44.482Z,6.97
2023-04-11T01:16:10.600Z,6.30
2023-04-11T01:21:36.206Z,5.83
2023-04-11T01:26:58.857Z,7.37
2023-04-11T01:32:21.547Z,7.27
2023-04-11T01:37:44.314Z,6.40
2023-04-11T01:43:09.350Z,6.30
2023-04-11T01:48:34.226Z,6.23
2023-04-11T01:53:56.553Z,6.70
2023-04-11T01:59:19.768Z,6.33
2023-04-11T02:04:42.336Z,6.97
2023-04-11T02:10:05.118Z,6.83
2023-04-11T02:15:28.796Z,6.93
2023-04-11T02:20:51.485Z,6.70
2023-04-11T02:26:16.392Z,6.90
2023-04-11T02:31:38.705Z,6.67
2023-04-11T02:37:01.388Z,7.10
2023-04-11T02:42:26.131Z,7.77
2023-04-11T02:47:48.886Z,7.33
2023-04-11T02:53:12.309Z,6.80
2023-04-11T02:58:42.060Z,7.07
2023-04-11T03:04:07.491Z,7.33
2023-04-11T03:09:44.130Z,6.73
2023-04-11T03:15:07.198Z,6.10
2023-04-11T03:20:29.660Z,7.23
2023-04-11T03:25:53.680Z,7.07
2023-04-11T03:31:17.823Z,6.40
2023-04-11T03:36:41.287Z,6.67
2023-04-11T03:42:03.869Z,7.20
2023-04-11T03:47:27.415Z,7.33
2023-04-11T03:52:50.445Z,6.70
2023-04-11T03:58:13.073Z,6.43
2023-04-11T04:03:38.396Z,6.73
2023-04-11T04:09:03.874Z,6.53
2023-04-11T04:14:39.358Z,6.20
2023-04-11T04:20:02.198Z,6.87
2023-04-11T04:25:26.175Z,6.13
2023-04-11T04:30:54.392Z,6.27
2023-04-11T04:36:19.280Z,6.73
2023-04-11T04:41:58.470Z,6.87
2023-04-11T04:47:33.718Z,6.10
2023-04-11T04:52:56.524Z,6.70
2023-04-11T04:58:18.986Z,6.47
2023-04-11T05:03:41.955Z,6.53
2023-04-11T05:09:09.859Z,6.63
2023-04-11T05:14:32.636Z,6.47
2023-04-11T05:19:55.499Z,6.77
2023-04-11T05:25:18.160Z,7.27
2023-04-11T05:30:41.434Z,7.20
2023-04-11T05:36:06.255Z,7.20
2023-04-11T05:41:28.698Z,7.03
2023-04-11T05:46:51.031Z,7.00
2023-04-11T05:52:13.912Z,7.30
2023-04-11T05:57:36.219Z,8.13
2023-04-11T06:03:00.429Z,7.47
2023-04-11T06:08:23.114Z,7.13
2023-04-11T06:13:45.668Z,7.63
2023-04-11T06:19:08.173Z,7.23
2023-04-11T06:24:38.757Z,7.27
2023-04-11T06:30:01.425Z,7.17
2023-04-11T06:35:25.121Z,6.77
2023-04-11T06:40:48.975Z,7.43
2023-04-11T06:46:12.106Z,6.67
2023-04-11T06:51:36.190Z,6.77
2023-04-11T06:56:58.824Z,7.37
2023-04-11T07:02:22.070Z,7.00
2023-04-11T07:07:44.544Z,7.10
2023-04-11T07:13:06.958Z,6.93
2023-04-11T07:18:30.579Z,7.33
2023-04-11T07:23:53.550Z,6.50
2023-04-11T07:29:18.320Z,6.87
2023-04-11T07:34:40.654Z,7.40
2023-04-11T07:40:06.495Z,6.83
2023-04-11T07:45:29.510Z,6.63
2023-04-11T07:50:53.437Z,6.67
2023-04-11T07:56:16.314Z,7.23
2023-04-11T08:01:38.784Z,6.90
2023-04-11T08:07:02.186Z,7.10
2023-04-11T08:12:25.868Z,7.70
2023-04-11T08:17:51.671Z,7.30
2023-04-11T08:23:20.246Z,7.53
2023-04-11T08:28:43.552Z,7.50
2023-04-11T08:34:07.316Z,6.87
2023-04-11T08:39:30.050Z,6.80
2023-04-11T08:45:04.498Z,7.30
2023-04-11T08:50:26.925Z,6.93
2023-04-11T08:55:49.204Z,7.47
2023-04-11T09:01:24.791Z,7.10
2023-04-11T09:07:00.579Z,4.83
2023-04-11T09:12:29.797Z,2.90
2023-04-11T09:17:52.651Z,3.60
2023-04-11T09:23:24.326Z,3.87
2023-04-11T09:28:54.524Z,3.37
2023-04-11T09:34:23.700Z,3.57
2023-04-11T09:39:58.299Z,4.00
2023-04-11T09:45:22.878Z,3.67
2023-04-11T09:50:45.775Z,4.13
2023-04-11T09:56:09.356Z,4.40
2023-04-11T10:01:32.836Z,4.70
2023-04-11T10:07:17.023Z,3.10
2023-04-11T10:12:39.554Z,2.10
2023-04-11T10:18:11.882Z,2.47
2023-04-11T10:24:14.147Z,2.63
2023-04-11T10:29:51.389Z,2.53
2023-04-11T10:35:17.352Z,2.57
2023-04-11T10:41:18.738Z,2.50
2023-04-11T10:46:45.673Z,2.13
2023-04-11T10:52:23.975Z,2.47
2023-04-11T10:58:09.468Z,2.57
2023-04-11T11:03:34.296Z,2.30
2023-04-11T11:08:57.908Z,2.33
2023-04-11T11:14:30.451Z,1.53
2023-04-11T11:19:53.151Z,1.70
2023-04-11T11:25:15.639Z,1.90
2023-04-11T11:30:38.890Z,1.90
2023-04-11T11:36:03.704Z,1.63
2023-04-11T11:41:27.217Z,1.60
2023-04-11T11:47:13.066Z,1.67
2023-04-11T11:52:41.962Z,1.90
2023-04-11T11:58:05.847Z,1.07
2023-04-11T12:03:29.851Z,0.93
2023-04-11T12:08:54.064Z,1.60
2023-04-11T12:14:23.521Z,1.40
2023-04-11T12:19:45.922Z,1.40
2023-04-11T12:25:10.683Z,2.00
2023-04-11T12:30:32.991Z,2.20
2023-04-11T12:35:55.266Z,1.70
2023-04-11T12:46:43.254Z,0.73
2023-04-11T12:52:07.071Z,1.20
2023-04-11T12:57:29.424Z,1.27
2023-04-11T13:02:51.904Z,1.20
2023-04-11T13:08:17.345Z,1.30
2023-04-11T13:13:42.841Z,1.30
2023-04-11T13:19:05.893Z,1.20
2023-04-11T13:24:28.513Z,1.40
2023-04-11T13:29:51.012Z,1.10
2023-04-11T13:35:13.348Z,1.30
2023-04-11T13:40:35.975Z,1.27
2023-04-11T13:45:58.104Z,1.50
2023-04-11T13:51:20.572Z,1.60
2023-04-11T13:56:42.939Z,1.67
2023-04-11T14:02:05.340Z,1.50
2023-04-11T14:07:27.711Z,1.87
2023-04-11T14:12:49.909Z,2.10
2023-04-11T14:18:14.466Z,1.70
2023-04-11T14:23:36.974Z,1.30
2023-04-11T14:28:59.265Z,1.00
2023-04-11T14:34:21.619Z,0.93
2023-04-11T14:39:44.254Z,1.10
2023-04-11T14:45:07.253Z,1.10
2023-04-11T14:50:29.707Z,1.07
2023-04-11T14:55:52.034Z,0.90
2023-04-11T15:01:14.707Z,1.50
2023-04-11T15:06:37.595Z,1.00
2023-04-11T15:12:01.818Z,1.20
2023-04-11T15:17:24.102Z,0.80
2023-04-11T15:22:47.956Z,1.07
2023-04-11T15:28:10.422Z,1.67
2023-04-11T15:33:34.094Z,1.47
2023-04-11T15:38:57.612Z,1.33
2023-04-11T15:44:20.793Z,1.80
2023-04-11T15:49:43.207Z,2.43
2023-04-11T15:55:06.877Z,2.13
2023-04-11T16:00:28.992Z,1.40
2023-04-11T16:05:53.038Z,2.03
2023-04-11T16:11:15.189Z,1.93
2023-04-11T16:16:38.127Z,1.93
2023-04-11T16:22:00.785Z,2.10
2023-04-11T16:27:23.097Z,2.13
2023-04-11T16:32:45.614Z,2.30
2023-04-11T16:38:08.326Z,1.80
2023-04-11T16:43:30.688Z,1.80
2023-04-11T16:48:53.255Z,2.30
2023-04-11T16:54:16.227Z,1.47
2023-04-11T16:59:39.484Z,1.37
2023-04-11T17:05:02.553Z,1.50
2023-04-11T17:10:25.374Z,1.50
2023-04-11T17:15:48.185Z,1.57
2023-04-11T17:21:11.040Z,1.80
2023-04-11T17:26:34.612Z,1.37
2023-04-11T17:31:57.368Z,1.20
2023-04-11T17:37:19.653Z,1.80
2023-04-11T17:42:42.347Z,1.50
2023-04-11T17:48:08.221Z,1.33
2023-04-11T17:53:31.357Z,1.60
2023-04-11T17:58:53.683Z,1.50
2023-04-11T18:04:16.123Z,1.83
2023-04-11T18:09:38.501Z,1.77
2023-04-11T18:15:01.140Z,1.80
2023-04-11T18:20:23.319Z,1.70
2023-04-11T18:25:45.590Z,1.60
2023-04-11T18:31:08.134Z,1.73
2023-04-11T18:36:33.153Z,2.00
2023-04-11T18:41:56.023Z,1.57
2023-04-11T18:47:19.044Z,1.40
2023-04-11T18:52:42.275Z,1.80
2023-04-11T18:58:08.275Z,1.63
2023-04-11T19:03:32.261Z,1.80
2023-04-11T19:08:55.978Z,1.80
2023-04-11T19:14:18.424Z,2.10
2023-04-11T19:19:40.792Z,2.20
2023-04-11T19:25:05.335Z,2.50
2023-04-11T19:30:29.650Z,2.07
2023-04-11T19:35:55.303Z,1.63
2023-04-11T19:41:19.683Z,1.90
2023-04-11T19:46:41.962Z,1.90
2023-04-11T19:52:04.494Z,1.87
2023-04-11T19:57:27.587Z,2.10
2023-04-11T20:02:50.058Z,2.00
2023-04-11T20:08:12.336Z,2.30
2023-04-11T20:13:36.323Z,2.00
2023-04-11T20:18:58.997Z,1.70
2023-04-11T20:24:21.611Z,2.50
2023-04-11T20:29:44.212Z,2.13
2023-04-11T20:35:11.496Z,2.30
2023-04-11T20:40:34.941Z,2.17
2023-04-11T20:45:57.644Z,2.23
2023-04-11T20:51:20.164Z,1.93
2023-04-11T20:56:42.926Z,2.00
2023-04-11T21:02:05.537Z,2.10
2023-04-11T21:07:28.244Z,2.10
2023-04-11T21:12:54.452Z,2.20
2023-04-11T21:18:17.159Z,2.37
2023-04-11T21:23:39.636Z,2.10
2023-04-11T21:29:02.158Z,2.20
2023-04-11T21:34:24.469Z,2.80
2023-04-11T21:39:46.587Z,3.37
2023-04-11T21:45:09.163Z,4.60
2023-04-11T21:50:31.498Z,3.67
2023-04-11T21:55:54.948Z,2.80
2023-04-11T22:01:17.385Z,2.70
2023-04-11T22:06:46.269Z,2.70
2023-04-11T22:12:08.559Z,2.47
2023-04-11T22:17:34.463Z,2.50
2023-04-11T22:22:57.764Z,2.60
2023-04-11T22:28:22.173Z,1.90
2023-04-11T22:33:44.296Z,2.17
2023-04-11T22:39:07.034Z,2.10
2023-04-11T22:44:29.391Z,2.87
2023-04-11T22:49:51.595Z,2.77
2023-04-11T22:55:16.239Z,2.60
2023-04-11T23:00:39.544Z,2.03
2023-04-11T23:06:02.062Z,2.17
2023-04-11T23:11:24.918Z,2.20
2023-04-11T23:16:47.402Z,2.23
2023-04-11T23:22:09.789Z,2.20
2023-04-11T23:27:32.712Z,2.17
2023-04-11T23:32:54.983Z,2.20
2023-04-11T23:38:17.659Z,2.17
2023-04-11T23:43:39.843Z,1.80
2023-04-11T23:49:02.095Z,2.50
2023-04-11T23:54:28.110Z,2.20
2023-04-11T23:59:52.562Z,2.67
